createdAt,value
2018-09-28T00:00:06.884Z,70.88
2018-09-28T00:01:06.878Z,70.82
2018-09-28T00:02:07.088Z,71.25
2018-09-28T00:03:06.751Z,71.93
2018-09-28T00:04:06.866Z,71.25
2018-09-28T00:05:06.715Z,70.72
2018-09-28T00:06:06.699Z,70.92
2018-09-28T00:07:07.021Z,71.45
2018-09-28T00:08:06.919Z,71.1
2018-09-28T00:09:06.865Z,70.63
2018-09-28T00:10:06.929Z,70.67
2018-09-28T00:11:06.878Z,70.85
2018-09-28T00:12:06.955Z,70.78
2018-09-28T00:13:06.964Z,71.07
2018-09-28T00:14:06.854Z,70.99
2018-09-28T00:15:06.997Z,71.31
2018-09-28T00:16:06.891Z,71.1
2018-09-28T00:17:06.709Z,71.71
2018-09-28T00:18:06.915Z,72.07
2018-09-28T00:19:06.689Z,71.5
2018-09-28T00:20:07.063Z,71.2
2018-09-28T00:21:06.880Z,71.6
2018-09-28T00:22:07.025Z,72.4
2018-09-28T00:23:07.165Z,72.19
2018-09-28T00:24:06.888Z,72.11
2018-09-28T00:25:06.851Z,71.9
2018-09-28T00:26:06.974Z,71.73
2018-09-28T00:27:06.913Z,72.19
2018-09-28T00:28:06.714Z,72.33
2018-09-28T00:29:06.662Z,71.54
2018-09-28T00:30:06.684Z,71.42
2018-09-28T00:31:06.813Z,71.74
2018-09-28T00:32:06.785Z,71.98
2018-09-28T00:33:06.878Z,71.79
2018-09-28T00:34:07.225Z,72.05
2018-09-28T00:35:06.945Z,71.39
2018-09-28T00:36:06.825Z,72.28
2018-09-28T00:37:06.878Z,71.91
2018-09-28T00:38:07.095Z,71.77
2018-09-28T00:39:06.774Z,71.29
2018-09-28T00:40:07.182Z,71.19
2018-09-28T00:41:06.992Z,71.99
2018-09-28T00:42:06.714Z,72.23
2018-09-28T00:43:06.684Z,71.71
2018-09-28T00:44:06.934Z,71.9
2018-09-28T00:45:06.658Z,72.3
2018-09-28T00:46:06.767Z,71.97
2018-09-28T00:47:06.815Z,71.94
2018-09-28T00:48:06.940Z,71.71
2018-09-28T00:49:06.925Z,71.98
2018-09-28T00:50:06.678Z,72.08
2018-09-28T00:51:06.833Z,71.79
2018-09-28T00:52:06.915Z,72.2
2018-09-28T00:53:07.000Z,71.88
2018-09-28T00:54:06.835Z,72.53
2018-09-28T00:55:06.992Z,71.92
2018-09-28T00:56:06.743Z,72.67
2018-09-28T00:57:06.995Z,72.75
2018-09-28T00:58:06.894Z,72.62
2018-09-28T00:59:06.931Z,72.14
2018-09-28T01:00:06.799Z,72.09
2018-09-28T01:01:06.827Z,72.71
2018-09-28T01:02:06.782Z,72.68
2018-09-28T01:03:06.819Z,72.58
2018-09-28T01:04:06.644Z,72.9
2018-09-28T01:05:06.794Z,72.45
2018-09-28T01:06:06.825Z,72.14
2018-09-28T01:07:06.946Z,72.02
2018-09-28T01:08:06.624Z,72.49
2018-09-28T01:09:06.593Z,71.91
2018-09-28T01:10:06.604Z,71.65
2018-09-28T01:11:06.846Z,72.7
2018-09-28T01:12:06.847Z,73.03
2018-09-28T01:13:06.756Z,73
2018-09-28T01:14:06.763Z,73.21
2018-09-28T01:15:07.103Z,72.99
2018-09-28T01:16:06.597Z,73.52
2018-09-28T01:17:06.653Z,73.51
2018-09-28T01:18:06.810Z,73.58
2018-09-28T01:19:06.590Z,73.78
2018-09-28T01:20:06.773Z,73.91
2018-09-28T01:21:06.801Z,74.11
2018-09-28T01:22:06.641Z,73.86
2018-09-28T01:23:06.715Z,73.59
2018-09-28T01:24:06.963Z,74.1
2018-09-28T01:25:06.782Z,73.7
2018-09-28T01:26:06.580Z,73.71
2018-09-28T01:27:06.742Z,73.35
2018-09-28T01:28:06.641Z,73.35
2018-09-28T01:29:06.763Z,72.94
2018-09-28T01:30:06.569Z,73.9
2018-09-28T01:31:06.769Z,73.6
2018-09-28T01:32:06.755Z,73.59
2018-09-28T01:33:06.586Z,72.84
2018-09-28T01:34:06.733Z,72.79
2018-09-28T01:35:06.815Z,73.97
2018-09-28T01:36:07.042Z,73.96
2018-09-28T01:37:06.753Z,73.74
2018-09-28T01:38:06.901Z,74.28
2018-09-28T01:39:06.616Z,73.83
2018-09-28T01:40:06.583Z,73.99
2018-09-28T01:41:06.571Z,73.91
2018-09-28T01:42:07.119Z,74.24
2018-09-28T01:43:06.814Z,73.97
2018-09-28T01:44:06.776Z,74.27
2018-09-28T01:45:06.943Z,74.25
2018-09-28T01:46:06.608Z,74.43
2018-09-28T01:47:06.741Z,74.56
2018-09-28T01:48:06.983Z,74.01
2018-09-28T01:49:06.671Z,74.62
2018-09-28T01:50:06.714Z,74.95
2018-09-28T01:51:06.973Z,74.89
2018-09-28T01:52:06.935Z,75.08
2018-09-28T01:53:06.586Z,74.49
2018-09-28T01:54:06.638Z,74.97
2018-09-28T01:55:06.751Z,75.16
2018-09-28T01:56:06.558Z,74.6
2018-09-28T01:57:06.664Z,74
2018-09-28T01:58:06.710Z,73.66
2018-09-28T01:59:06.585Z,74.54
2018-09-28T02:00:06.707Z,74.45
2018-09-28T02:01:06.587Z,74.69
2018-09-28T02:02:06.975Z,74.45
2018-09-28T02:03:06.781Z,74.02
2018-09-28T02:04:06.844Z,74.25
2018-09-28T02:05:06.921Z,74.21
2018-09-28T02:06:07.058Z,74.47
2018-09-28T02:07:07.055Z,74.32
2018-09-28T02:08:06.717Z,74.88
2018-09-28T02:09:06.806Z,74.3
2018-09-28T02:10:06.575Z,74.77
2018-09-28T02:11:06.777Z,74.07
2018-09-28T02:12:06.503Z,74.23
2018-09-28T02:13:06.690Z,74.76
2018-09-28T02:14:07.073Z,74.47
2018-09-28T02:15:06.908Z,74.53
2018-09-28T02:16:07.012Z,74.26
2018-09-28T02:17:06.611Z,73.83
2018-09-28T02:18:06.552Z,74.89
2018-09-28T02:19:06.714Z,75.54
2018-09-28T02:20:06.783Z,75.28
2018-09-28T02:21:06.825Z,75.45
2018-09-28T02:22:06.948Z,74.81
2018-09-28T02:23:06.615Z,75.3
2018-09-28T02:24:06.598Z,74.81
2018-09-28T02:25:06.547Z,74.69
2018-09-28T02:26:06.574Z,74.81
2018-09-28T02:27:06.646Z,75.23
2018-09-28T02:28:06.580Z,74.78
2018-09-28T02:29:06.546Z,75.31
2018-09-28T02:30:06.531Z,76.36
2018-09-28T02:31:06.778Z,76.29
2018-09-28T02:32:06.910Z,76.08
2018-09-28T02:33:06.683Z,75.24
2018-09-28T02:34:06.624Z,75.29
2018-09-28T02:35:06.553Z,75.35
2018-09-28T02:36:06.683Z,76.1
2018-09-28T02:37:06.612Z,76.37
2018-09-28T02:38:06.495Z,75.88
2018-09-28T02:39:06.772Z,76.17
2018-09-28T02:40:06.965Z,75.93
2018-09-28T02:41:06.683Z,76.18
2018-09-28T02:42:06.642Z,76.42
2018-09-28T02:43:06.707Z,76.05
2018-09-28T02:44:06.674Z,75.27
2018-09-28T02:45:06.644Z,75.21
2018-09-28T02:46:06.521Z,74.86
2018-09-28T02:47:06.538Z,75.62
2018-09-28T02:48:06.505Z,75.37
2018-09-28T02:49:06.630Z,75.46
2018-09-28T02:50:06.505Z,75.04
2018-09-28T02:51:06.652Z,75.3
2018-09-28T02:52:06.645Z,74.59
2018-09-28T02:53:06.475Z,74.45
2018-09-28T02:54:06.628Z,74.4
2018-09-28T02:55:06.487Z,74.74
2018-09-28T02:56:06.642Z,74.4
2018-09-28T02:57:06.725Z,74.81
2018-09-28T02:58:06.657Z,75.48
2018-09-28T02:59:06.491Z,74.79
2018-09-28T03:00:06.708Z,75.6
2018-09-28T03:01:06.503Z,75.84
2018-09-28T03:02:06.475Z,75.84
2018-09-28T03:03:06.746Z,76.08
2018-09-28T03:04:06.775Z,75.59
2018-09-28T03:05:06.630Z,75.95
2018-09-28T03:06:06.815Z,75.72
2018-09-28T03:07:06.613Z,75.25
2018-09-28T03:08:06.517Z,75.37
2018-09-28T03:09:06.687Z,75.33
2018-09-28T03:10:06.488Z,75.89
2018-09-28T03:11:06.848Z,76.11
2018-09-28T03:12:06.445Z,75.49
2018-09-28T03:13:06.713Z,76.21
2018-09-28T03:14:06.762Z,76.51
2018-09-28T03:15:06.590Z,75.92
2018-09-28T03:16:06.583Z,76.18
2018-09-28T03:17:06.580Z,75.65
2018-09-28T03:18:06.462Z,75.46
2018-09-28T03:19:06.522Z,75.76
2018-09-28T03:20:06.705Z,76.03
2018-09-28T03:21:06.440Z,76.42
2018-09-28T03:22:06.558Z,76.6
2018-09-28T03:23:06.623Z,76.2
2018-09-28T03:24:06.528Z,76.6
2018-09-28T03:25:06.589Z,76.32
2018-09-28T03:26:06.433Z,76.42
2018-09-28T03:27:06.441Z,76.38
2018-09-28T03:28:06.601Z,75.69
2018-09-28T03:29:06.625Z,75.81
2018-09-28T03:30:06.603Z,75.75
2018-09-28T03:31:06.563Z,75.83
2018-09-28T03:32:06.707Z,76.19
2018-09-28T03:33:06.648Z,76.26
2018-09-28T03:34:06.561Z,75.77
2018-09-28T03:35:06.573Z,76.17
2018-09-28T03:36:06.646Z,76.5
2018-09-28T03:37:06.511Z,76.77
2018-09-28T03:38:06.551Z,77.09
2018-09-28T03:39:06.689Z,76.95
2018-09-28T03:40:06.661Z,76.61
2018-09-28T03:41:06.586Z,76.09
2018-09-28T03:42:06.599Z,76.13
2018-09-28T03:43:06.474Z,75.97
2018-09-28T03:44:06.906Z,76.16
2018-09-28T03:45:06.569Z,76.23
2018-09-28T03:46:06.414Z,76.84
2018-09-28T03:47:06.616Z,77.34
2018-09-28T03:48:06.592Z,76.88
2018-09-28T03:49:06.392Z,76.86
2018-09-28T03:50:06.597Z,77.2
2018-09-28T03:51:06.561Z,77.29
2018-09-28T03:52:06.623Z,77.01
2018-09-28T03:53:06.639Z,77.01
2018-09-28T03:54:06.693Z,76.64
2018-09-28T03:55:06.497Z,76.72
2018-09-28T03:56:06.614Z,76.47
2018-09-28T03:57:06.682Z,75.94
2018-09-28T03:58:06.736Z,76.92
2018-09-28T03:59:06.626Z,76.71
2018-09-28T04:00:06.769Z,77.29
2018-09-28T04:01:06.452Z,77.35
2018-09-28T04:02:06.392Z,76.66
2018-09-28T04:03:06.712Z,77.35
2018-09-28T04:04:06.928Z,77.36
2018-09-28T04:05:06.610Z,76.9
2018-09-28T04:06:06.755Z,77.11
2018-09-28T04:07:06.443Z,77.64
2018-09-28T04:08:06.559Z,77.33
2018-09-28T04:09:06.514Z,77.31
2018-09-28T04:10:06.363Z,77.55
2018-09-28T04:11:06.517Z,78.03
2018-09-28T04:12:06.444Z,78.09
2018-09-28T04:13:06.649Z,78.03
2018-09-28T04:14:06.638Z,78.21
2018-09-28T04:15:06.438Z,78.04
2018-09-28T04:16:06.505Z,78.25
2018-09-28T04:17:06.555Z,78.09
2018-09-28T04:18:06.521Z,78.38
2018-09-28T04:19:06.521Z,78.47
2018-09-28T04:20:06.570Z,78.5
2018-09-28T04:21:06.516Z,78.56
2018-09-28T04:22:06.688Z,78.22
2018-09-28T04:23:06.391Z,77.86
2018-09-28T04:24:06.529Z,78.14
2018-09-28T04:25:06.612Z,78.66
2018-09-28T04:26:06.385Z,79.3
2018-09-28T04:27:06.369Z,79.29
2018-09-28T04:28:06.387Z,79.25
2018-09-28T04:29:06.471Z,78.8
2018-09-28T04:30:06.324Z,78.36
2018-09-28T04:31:06.493Z,78.58
2018-09-28T04:32:06.613Z,78.09
2018-09-28T04:33:06.513Z,78.3
2018-09-28T04:34:06.777Z,78.28
2018-09-28T04:35:06.356Z,77.86
2018-09-28T04:36:06.604Z,78.25
2018-09-28T04:37:06.654Z,78.29
2018-09-28T04:38:06.611Z,78.19
2018-09-28T04:39:06.646Z,78.23
2018-09-28T04:40:06.614Z,78.23
2018-09-28T04:41:07.941Z,77.83
2018-09-28T04:42:06.524Z,77.75
2018-09-28T04:43:06.716Z,78.35
2018-09-28T04:44:06.589Z,78.3
2018-09-28T04:45:06.458Z,78.25
2018-09-28T04:46:06.507Z,78.34
2018-09-28T04:47:06.646Z,78.26
2018-09-28T04:48:06.519Z,77.81
2018-09-28T04:49:06.573Z,77.84
2018-09-28T04:50:06.712Z,77.73
2018-09-28T04:51:06.511Z,77.96
2018-09-28T04:52:06.573Z,78.47
2018-09-28T04:53:11.576Z,78.12
2018-09-28T04:54:06.458Z,77.92
2018-09-28T04:55:06.853Z,78.35
2018-09-28T04:56:06.603Z,78.5
2018-09-28T04:57:07.195Z,78.25
2018-09-28T04:58:06.384Z,77.98
2018-09-28T04:59:06.419Z,78.59
2018-09-28T05:00:06.499Z,78.29
2018-09-28T05:01:06.531Z,77.75
2018-09-28T05:02:06.510Z,78.02
2018-09-28T05:03:06.416Z,77.86
2018-09-28T05:04:06.444Z,77.5
2018-09-28T05:05:06.462Z,77.83
2018-09-28T05:06:06.504Z,77.79
2018-09-28T05:07:06.618Z,77.68
2018-09-28T05:08:06.521Z,77.73
2018-09-28T05:09:06.893Z,78.01
2018-09-28T05:10:06.594Z,77.99
2018-09-28T05:11:06.588Z,77.73
2018-09-28T05:12:06.613Z,78.16
2018-09-28T05:13:06.732Z,78.4
2018-09-28T05:14:06.665Z,78.34
2018-09-28T05:15:06.464Z,78.85
2018-09-28T05:16:06.475Z,78.36
2018-09-28T05:17:06.532Z,78.19
2018-09-28T05:18:06.352Z,77.98
2018-09-28T05:19:06.466Z,78.42
2018-09-28T05:20:06.542Z,78.49
2018-09-28T05:21:06.752Z,78.45
2018-09-28T05:22:07.712Z,78.72
2018-09-28T05:23:06.496Z,78.27
2018-09-28T05:24:06.505Z,77.85
2018-09-28T05:25:06.485Z,78.22
2018-09-28T05:26:06.538Z,78.43
2018-09-28T05:27:06.992Z,78.26
2018-09-28T05:28:06.564Z,78.1
2018-09-28T05:29:06.641Z,78.32
2018-09-28T05:30:06.506Z,77.84
2018-09-28T05:31:06.630Z,78.59
2018-09-28T05:32:06.687Z,78.6
2018-09-28T05:33:06.519Z,78.61
2018-09-28T05:34:06.531Z,78.58
2018-09-28T05:35:06.274Z,78.67
2018-09-28T05:36:06.550Z,78.57
2018-09-28T05:37:06.302Z,78.36
2018-09-28T05:38:06.632Z,77.88
2018-09-28T05:39:06.308Z,78.18
2018-09-28T05:40:06.567Z,78.31
2018-09-28T05:41:06.527Z,78.06
2018-09-28T05:42:06.664Z,78.32
2018-09-28T05:43:06.415Z,78.39
2018-09-28T05:44:06.419Z,78.33
2018-09-28T05:45:06.268Z,78.53
2018-09-28T05:46:06.443Z,78.5
2018-09-28T05:47:06.451Z,78.37
2018-09-28T05:48:06.254Z,78.73
2018-09-28T05:49:06.330Z,78.58
2018-09-28T05:50:06.576Z,78.24
2018-09-28T05:51:06.413Z,77.85
2018-09-28T05:52:06.397Z,78.05
2018-09-28T05:53:06.426Z,78.36
2018-09-28T05:54:06.254Z,78.28
2018-09-28T05:55:06.405Z,78.35
2018-09-28T05:56:06.223Z,78.12
2018-09-28T05:57:06.398Z,78
2018-09-28T05:58:06.369Z,78.05
2018-09-28T05:59:06.382Z,78.06
2018-09-28T06:00:07.224Z,78.27
2018-09-28T06:01:06.349Z,78.18
2018-09-28T06:02:06.414Z,77.9
2018-09-28T06:03:06.220Z,77.93
2018-09-28T06:04:06.431Z,78.29
2018-09-28T06:05:06.235Z,78.75
2018-09-28T06:06:06.382Z,78.37
2018-09-28T06:07:06.469Z,78.67
2018-09-28T06:08:06.454Z,78.4
2018-09-28T06:09:06.388Z,78.05
2018-09-28T06:10:06.375Z,77.84
2018-09-28T06:11:06.295Z,77.81
2018-09-28T06:12:06.404Z,78.87
2018-09-28T06:13:06.378Z,79.35
2018-09-28T06:14:06.633Z,79.14
2018-09-28T06:15:06.267Z,78.55
2018-09-28T06:16:06.568Z,78.87
2018-09-28T06:17:06.446Z,78.26
2018-09-28T06:18:06.195Z,78.84
2018-09-28T06:19:06.313Z,78.93
2018-09-28T06:20:06.440Z,79.01
2018-09-28T06:21:06.347Z,78.83
2018-09-28T06:22:06.509Z,78.2
2018-09-28T06:23:06.263Z,78.42
2018-09-28T06:24:06.253Z,78.29
2018-09-28T06:25:06.193Z,79.3
2018-09-28T06:26:06.203Z,79.26
2018-09-28T06:27:06.184Z,78.97
2018-09-28T06:28:06.319Z,79.66
2018-09-28T06:29:06.281Z,79.43
2018-09-28T06:30:06.356Z,80.04
2018-09-28T06:31:06.219Z,79.37
2018-09-28T06:32:06.529Z,79.92
2018-09-28T06:33:06.409Z,79.54
2018-09-28T06:34:06.268Z,78.87
2018-09-28T06:35:06.451Z,78.63
2018-09-28T06:36:06.505Z,78.55
2018-09-28T06:37:06.394Z,78.25
2018-09-28T06:38:06.369Z,79.07
2018-09-28T06:39:06.185Z,78.46
2018-09-28T06:40:06.591Z,79.5
2018-09-28T06:41:06.361Z,79.14
2018-09-28T06:42:06.528Z,79.98
2018-09-28T06:43:06.461Z,79.81
2018-09-28T06:44:06.640Z,79.78
2018-09-28T06:45:06.455Z,79.12
2018-09-28T06:46:06.319Z,79.63
2018-09-28T06:47:06.450Z,80.05
2018-09-28T06:48:06.407Z,79.88
2018-09-28T06:49:06.308Z,80.2
2018-09-28T06:50:06.343Z,80.22
2018-09-28T06:51:06.550Z,80.33
2018-09-28T06:52:06.459Z,79.84
2018-09-28T06:53:06.161Z,80.06
2018-09-28T06:54:06.197Z,80.25
2018-09-28T06:55:06.192Z,80.76
2018-09-28T06:56:06.458Z,80.79
2018-09-28T06:57:06.700Z,80.45
2018-09-28T06:58:06.597Z,80.52
2018-09-28T06:59:06.284Z,80.01
2018-09-28T07:00:06.533Z,80.61
2018-09-28T07:01:06.454Z,80.99
2018-09-28T07:02:06.357Z,81.28
2018-09-28T07:03:06.355Z,81.69
2018-09-28T07:04:06.207Z,81.89
2018-09-28T07:05:06.378Z,81.78
2018-09-28T07:06:06.240Z,81.74
2018-09-28T07:07:06.246Z,81.47
2018-09-28T07:08:06.302Z,80.54
2018-09-28T07:09:06.313Z,80.3
2018-09-28T07:10:06.357Z,80.09
2018-09-28T07:11:06.513Z,81
2018-09-28T07:12:06.297Z,81.15
2018-09-28T07:13:06.302Z,81.18
2018-09-28T07:14:06.164Z,81.06
2018-09-28T07:15:06.168Z,81.08
2018-09-28T07:16:06.314Z,81.23
2018-09-28T07:17:06.337Z,80.87
2018-09-28T07:18:06.270Z,80.81
2018-09-28T07:19:06.112Z,80.76
2018-09-28T07:20:06.343Z,80.95
2018-09-28T07:21:06.377Z,81.64
2018-09-28T07:22:06.096Z,81.81
2018-09-28T07:23:06.140Z,81.67
2018-09-28T07:24:06.386Z,81.27
2018-09-28T07:25:06.327Z,81.13
2018-09-28T07:26:06.384Z,81.06
2018-09-28T07:27:06.316Z,81.17
2018-09-28T07:28:06.256Z,81.18
2018-09-28T07:29:06.316Z,81.59
2018-09-28T07:30:06.414Z,81.81
2018-09-28T07:31:06.392Z,82.19
2018-09-28T07:32:07.108Z,81.58
2018-09-28T07:33:06.149Z,81.5
2018-09-28T07:34:06.717Z,80.67
2018-09-28T07:35:06.322Z,81.79
2018-09-28T07:36:06.378Z,82.33
2018-09-28T07:37:06.576Z,82.34
2018-09-28T07:38:06.433Z,81.92
2018-09-28T07:39:06.154Z,81.39
2018-09-28T07:40:06.108Z,81.5
2018-09-28T07:41:06.139Z,81.48
2018-09-28T07:42:06.556Z,81.47
2018-09-28T07:43:06.254Z,81.37
2018-09-28T07:44:06.108Z,80.79
2018-09-28T07:45:06.378Z,80.67
2018-09-28T07:46:06.152Z,81.05
2018-09-28T07:47:06.609Z,80.96
2018-09-28T07:48:06.434Z,81.1
2018-09-28T07:49:06.275Z,80.82
2018-09-28T07:50:06.343Z,81.27
2018-09-28T07:51:06.618Z,81.51
2018-09-28T07:52:06.134Z,81.11
2018-09-28T07:53:06.319Z,80.84
2018-09-28T07:54:06.432Z,80.35
2018-09-28T07:55:06.304Z,81.02
2018-09-28T07:56:06.177Z,81.09
2018-09-28T07:57:06.237Z,80.91
2018-09-28T07:58:06.498Z,80.83
2018-09-28T07:59:06.227Z,80.73
2018-09-28T08:00:06.341Z,80.67
2018-09-28T08:01:06.212Z,80.69
2018-09-28T08:02:06.118Z,80.6
2018-09-28T08:03:06.082Z,80.25
2018-09-28T08:04:06.195Z,80.26
2018-09-28T08:05:06.277Z,79.98
2018-09-28T08:06:06.192Z,79.95
2018-09-28T08:07:06.224Z,80.24
2018-09-28T08:08:06.423Z,80.42
2018-09-28T08:09:06.246Z,80.08
2018-09-28T08:10:06.277Z,80.37
2018-09-28T08:11:06.072Z,80
2018-09-28T08:12:06.275Z,79.57
2018-09-28T08:13:06.052Z,79.94
2018-09-28T08:14:06.220Z,79.66
2018-09-28T08:15:06.296Z,79.03
2018-09-28T08:16:06.070Z,79.03
2018-09-28T08:17:06.329Z,79.78
2018-09-28T08:18:06.271Z,79.3
2018-09-28T08:19:06.297Z,79.46
2018-09-28T08:20:06.336Z,79.03
2018-09-28T08:31:24.131Z,75.95
2018-09-28T08:32:24.231Z,76.07
2018-09-28T08:33:24.041Z,75.56
2018-09-28T08:34:24.046Z,75.19
2018-09-28T08:35:24.167Z,75.09
2018-09-28T08:36:24.158Z,74.64
2018-09-28T08:37:24.006Z,74.66
2018-09-28T08:38:23.991Z,74.43
2018-09-28T08:39:24.052Z,74.27
2018-09-28T08:40:24.029Z,73.87
2018-09-28T08:41:24.008Z,73.99
2018-09-28T08:42:24.000Z,73.91
2018-09-28T08:43:23.813Z,73.55
2018-09-28T08:44:23.986Z,73.46
2018-09-28T08:45:23.987Z,73.61
2018-09-28T08:46:24.061Z,73.97
2018-09-28T08:47:23.976Z,74.07
2018-09-28T08:48:24.057Z,74.28
2018-09-28T08:49:23.966Z,74.13
2018-09-28T08:50:23.971Z,74.47
2018-09-28T08:51:23.976Z,74.22
2018-09-28T08:52:24.008Z,73.78
2018-09-28T08:53:24.076Z,73.68
2018-09-28T08:54:24.047Z,73.83
2018-09-28T08:55:24.364Z,73.5
2018-09-28T08:56:23.996Z,73.9
2018-09-28T08:58:24.933Z,73.98
2018-09-28T08:59:24.057Z,73.52
2018-09-28T09:00:24.192Z,72.92
2018-09-28T09:01:24.017Z,72.83
2018-09-28T09:02:24.053Z,72.52
2018-09-28T09:03:24.165Z,72.29
2018-09-28T09:04:24.138Z,72.34
2018-09-28T09:05:24.119Z,72.08
2018-09-28T09:06:24.004Z,72.23
2018-09-28T09:07:24.164Z,71.82
2018-09-28T09:08:24.122Z,71.83
2018-09-28T09:09:24.092Z,72.03
2018-09-28T09:10:23.928Z,71.7
2018-09-28T09:11:23.971Z,71.72
2018-09-28T09:12:23.989Z,71.99
2018-09-28T09:13:24.219Z,72.12
2018-09-28T09:14:24.035Z,70.73
2018-09-28T09:15:24.335Z,70.77
2018-09-28T09:16:24.133Z,71.23
2018-09-28T09:17:24.028Z,71.01
2018-09-28T09:18:23.994Z,70.72
2018-09-28T09:19:23.883Z,71.05
2018-09-28T09:20:24.022Z,71.61
2018-09-28T09:21:23.998Z,70.66
2018-09-28T09:22:24.042Z,70.81
2018-09-28T09:23:24.103Z,70.35
2018-09-28T09:24:24.180Z,70.17
2018-09-28T09:25:23.966Z,69.64
2018-09-28T09:26:24.094Z,69.96
2018-09-28T09:27:24.014Z,70.08
2018-09-28T09:28:24.015Z,70.16
2018-09-28T09:29:24.212Z,69.61
2018-09-28T09:30:24.022Z,69.02
2018-09-28T09:31:23.891Z,69.36
2018-09-28T09:32:24.016Z,67.97
2018-09-28T09:33:24.157Z,67.66
2018-09-28T09:34:24.035Z,67.73
2018-09-28T09:35:24.197Z,67.73
2018-09-28T09:36:24.026Z,67.89
2018-09-28T09:37:23.940Z,67.49
2018-09-28T09:38:23.983Z,67.66
2018-09-28T09:39:23.909Z,67.47
2018-09-28T09:40:23.982Z,67.54
2018-09-28T09:41:23.862Z,67.71
2018-09-28T09:42:25.012Z,67.85
2018-09-28T09:43:24.227Z,68.55
2018-09-28T09:44:24.065Z,68.93
2018-09-28T09:45:23.900Z,68.67
2018-09-28T09:46:24.038Z,66.69
2018-09-28T09:47:23.934Z,65.71
2018-09-28T09:48:24.023Z,66.13
2018-09-28T09:49:24.015Z,65.29
2018-09-28T09:50:23.986Z,65.6
2018-09-28T09:51:23.951Z,65.27
2018-09-28T09:52:23.891Z,65.43
2018-09-28T09:53:23.959Z,65.63
2018-09-28T09:54:24.032Z,65.59
2018-09-28T09:55:23.905Z,65.93
2018-09-28T09:56:23.867Z,65.35
2018-09-28T09:57:23.978Z,64.67
2018-09-28T09:58:23.918Z,65.38
2018-09-28T09:59:23.972Z,64.36
2018-09-28T10:00:24.126Z,64.98
2018-09-28T10:01:23.900Z,64.47
2018-09-28T10:02:23.922Z,64.69
2018-09-28T10:03:24.171Z,64.18
2018-09-28T10:04:23.920Z,64.02
2018-09-28T10:05:23.885Z,63.64
2018-09-28T10:06:24.066Z,63.19
2018-09-28T10:07:23.947Z,62.98
2018-09-28T10:08:23.844Z,62.79
2018-09-28T10:09:25.321Z,62.58
2018-09-28T10:10:23.875Z,62.8
2018-09-28T10:11:23.817Z,62.58
2018-09-28T10:12:24.971Z,61.81
2018-09-28T10:13:23.822Z,61.96
2018-09-28T10:14:24.124Z,61.6
2018-09-28T10:15:23.814Z,61.91
2018-09-28T10:16:23.924Z,61.28
2018-09-28T10:17:23.938Z,61.56
2018-09-28T10:18:23.807Z,61.29
2018-09-28T10:19:23.927Z,61.46
2018-09-28T10:20:23.875Z,61.38
2018-09-28T10:21:23.923Z,61.45
2018-09-28T10:22:23.814Z,61.17
2018-09-28T10:23:23.827Z,60.88
2018-09-28T10:24:24.289Z,61.16
2018-09-28T10:25:23.892Z,60.86
2018-09-28T10:26:23.959Z,60.36
2018-09-28T10:27:24.224Z,60.74
2018-09-28T10:28:24.165Z,59.98
2018-09-28T10:29:24.013Z,60.52
2018-09-28T10:30:24.021Z,59.75
2018-09-28T10:31:23.850Z,59.37
2018-09-28T10:32:23.899Z,59.7
2018-09-28T10:33:23.795Z,59.51
2018-09-28T10:34:24.046Z,59.6
2018-09-28T10:35:23.957Z,59.37
2018-09-28T10:36:24.074Z,58.91
2018-09-28T10:37:23.973Z,58.85
2018-09-28T10:38:23.907Z,58.84
2018-09-28T10:39:23.979Z,58.68
2018-09-28T10:40:24.037Z,58.08
2018-09-28T10:41:23.791Z,58.59
2018-09-28T10:42:24.019Z,58.59
2018-09-28T10:43:23.908Z,58.47
2018-09-28T10:44:23.815Z,58.82
2018-09-28T10:45:23.910Z,58.43
2018-09-28T10:46:24.100Z,58.42
2018-09-28T10:47:23.946Z,57.96
2018-09-28T10:48:23.884Z,58.25
2018-09-28T10:49:23.909Z,57.95
2018-09-28T10:50:24.060Z,57.88
2018-09-28T10:51:23.810Z,57.83
2018-09-28T10:52:24.335Z,57.83
2018-09-28T10:53:23.879Z,57.9
2018-09-28T10:55:03.618Z,57.3
2018-09-28T10:56:03.508Z,57.51
2018-09-28T10:57:48.398Z,56.68
2018-09-28T10:58:48.745Z,56.28
2018-09-28T10:59:48.476Z,56.01
2018-09-28T11:00:48.295Z,55.82
2018-09-28T11:01:48.668Z,56.04
2018-09-28T11:02:48.371Z,55.81
2018-09-28T11:03:49.825Z,55.82
2018-09-28T11:05:48.363Z,55.8
2018-09-28T11:06:49.494Z,55.84
2018-09-28T11:07:48.346Z,55.36
2018-09-28T11:08:48.275Z,55.53
2018-09-28T11:09:51.655Z,55.05
2018-09-28T11:10:48.313Z,54.4
2018-09-28T11:11:48.224Z,54.49
2018-09-28T11:12:48.257Z,54.17
2018-09-28T11:13:48.282Z,54.67
2018-09-28T11:14:48.287Z,53.87
2018-09-28T11:15:48.531Z,54.35
2018-09-28T11:16:48.132Z,53.8
2018-09-28T11:17:48.334Z,53.62
2018-09-28T11:18:48.470Z,54.1
2018-09-28T11:19:48.220Z,53.85
2018-09-28T11:20:48.364Z,53.15
2018-09-28T11:21:48.534Z,52.97
2018-09-28T11:22:48.318Z,52.81
2018-09-28T11:23:48.477Z,53.26
2018-09-28T11:24:48.431Z,53.18
2018-09-28T11:25:48.504Z,52.56
2018-09-28T11:26:48.358Z,52.43
2018-09-28T11:27:48.335Z,52.81
2018-09-28T11:28:48.397Z,52.89
2018-09-28T11:29:48.407Z,52.01
2018-09-28T11:30:48.313Z,52.29
2018-09-28T11:31:48.320Z,51.55
2018-09-28T11:32:48.442Z,51.16
2018-09-28T11:33:48.467Z,51.27
2018-09-28T11:34:48.353Z,51.48
2018-09-28T11:35:48.448Z,51.44
2018-09-28T11:36:48.356Z,51.24
2018-09-28T11:37:48.290Z,50.87
2018-09-28T11:38:48.216Z,50.3
2018-09-28T11:39:48.604Z,50.83
2018-09-28T11:40:48.290Z,50.71
2018-09-28T11:41:48.431Z,50.15
2018-09-28T11:42:48.616Z,49.92
2018-09-28T11:43:48.508Z,49.93
2018-09-28T11:44:48.410Z,49.33
2018-09-28T11:45:48.503Z,49.54
2018-09-28T11:46:48.314Z,49.59
2018-09-28T11:47:48.227Z,49.38
2018-09-28T11:48:48.348Z,49.54
2018-09-28T11:49:48.289Z,49
2018-09-28T11:50:48.261Z,49.02
2018-09-28T11:51:48.297Z,49.2
2018-09-28T11:52:48.345Z,48.54
2018-09-28T11:53:48.382Z,47.49
2018-09-28T11:54:48.161Z,47.76
2018-09-28T11:55:48.552Z,46.41
2018-09-28T11:56:48.272Z,45.98
2018-09-28T11:57:48.380Z,45.8
2018-09-28T11:58:48.402Z,46.28
2018-09-28T11:59:48.192Z,45.72
2018-09-28T12:00:48.517Z,46.18
2018-09-28T12:01:48.205Z,45.93
2018-09-28T12:02:48.178Z,46.43
2018-09-28T12:03:48.316Z,47.04
2018-09-28T12:04:48.147Z,47.4
2018-09-28T12:05:48.146Z,46.94
2018-09-28T12:06:48.430Z,46.32
2018-09-28T12:07:48.296Z,45.73
2018-09-28T12:08:48.103Z,44.96
2018-09-28T12:09:48.340Z,44.98
2018-09-28T12:10:48.166Z,44.33
2018-09-28T12:11:48.096Z,44.49
2018-09-28T12:12:48.590Z,44.45
2018-09-28T12:13:48.604Z,44.36
2018-09-28T12:14:48.490Z,44.61
2018-09-28T12:15:48.378Z,44.26
2018-09-28T12:16:48.217Z,44.09
2018-09-28T12:17:48.145Z,44.03
2018-09-28T12:18:48.302Z,43.27
2018-09-28T12:19:48.285Z,42.91
2018-09-28T12:20:48.179Z,43.15
2018-09-28T12:21:48.373Z,43.53
2018-09-28T12:22:48.271Z,43.4
2018-09-28T12:23:48.188Z,43.65
2018-09-28T12:24:48.396Z,44.18
2018-09-28T12:25:48.215Z,44
2018-09-28T12:26:48.166Z,42.88
2018-09-28T12:27:48.263Z,42.74
2018-09-28T12:28:48.124Z,43.18
2018-09-28T12:29:48.121Z,42.29
2018-09-28T12:30:48.257Z,42.17
2018-09-28T12:31:48.217Z,41.01
2018-09-28T12:32:48.155Z,40.7
2018-09-28T12:33:48.264Z,41.39
2018-09-28T12:34:48.144Z,41.88
2018-09-28T12:35:48.090Z,41.75
2018-09-28T12:36:48.176Z,42.04
2018-09-28T12:37:48.431Z,41.79
2018-09-28T12:38:48.079Z,40.18
2018-09-28T12:39:48.272Z,40.14
2018-09-28T12:40:48.097Z,39.66
2018-09-28T12:41:48.125Z,38.9
2018-09-28T12:42:48.155Z,38.65
2018-09-28T12:43:48.303Z,39.33
2018-09-28T12:44:48.154Z,40.03
2018-09-28T12:45:48.230Z,40.84
2018-09-28T12:46:48.082Z,40.99
2018-09-28T12:47:48.134Z,41.64
2018-09-28T12:48:48.324Z,40.95
2018-09-28T12:49:48.247Z,40.92
2018-09-28T12:50:48.167Z,42.21
2018-09-28T12:51:48.329Z,41.76
2018-09-28T12:52:48.112Z,41.17
2018-09-28T12:53:48.271Z,41.21
2018-09-28T12:54:48.143Z,41.29
2018-09-28T12:55:48.178Z,40.86
2018-09-28T12:56:48.086Z,40.75
2018-09-28T12:57:48.202Z,40.69
2018-09-28T12:58:48.104Z,40.6
2018-09-28T12:59:48.087Z,40.41
2018-09-28T13:00:48.311Z,41.11
2018-09-28T13:01:48.221Z,41.45
2018-09-28T13:02:48.223Z,41.09
2018-09-28T13:03:48.510Z,41.59
2018-09-28T13:04:48.208Z,41.22
2018-09-28T13:05:48.048Z,41.41
2018-09-28T13:06:48.362Z,41.34
2018-09-28T13:07:48.082Z,41.37
2018-09-28T13:08:48.200Z,41.75